createdAt,value
2022-12-31T00:00:49.677Z,0.30
2022-12-31T00:03:17.725Z,0.20
2022-12-31T00:05:45.482Z,0.10
2022-12-31T00:08:13.081Z,0.10
2022-12-31T00:10:41.756Z,0.10
2022-12-31T00:13:11.507Z,0.00
2022-12-31T00:15:40.445Z,0.00
2022-12-31T00:18:08.753Z,0.00
2022-12-31T00:20:40.205Z,0.00
2022-12-31T00:23:10.344Z,0.00
2022-12-31T00:25:38.194Z,0.00
2022-12-31T00:28:05.864Z,0.00
2022-12-31T00:30:34.470Z,0.00
2022-12-31T00:33:02.185Z,0.00
2022-12-31T00:35:29.808Z,0.10
2022-12-31T00:37:57.321Z,0.10
2022-12-31T00:40:24.922Z,0.10
2022-12-31T00:42:52.584Z,0.20
2022-12-31T00:45:20.201Z,0.30
2022-12-31T00:47:47.749Z,0.30
2022-12-31T00:50:15.295Z,0.30
2022-12-31T00:52:42.854Z,0.30
2022-12-31T00:55:10.500Z,0.40
2022-12-31T00:57:38.145Z,0.60
2022-12-31T01:00:07.734Z,0.60
2022-12-31T01:02:35.533Z,0.60
2022-12-31T01:05:03.294Z,0.60
2022-12-31T01:07:31.021Z,0.60
2022-12-31T01:09:58.731Z,0.60
2022-12-31T01:12:26.359Z,0.60
2022-12-31T01:14:53.919Z,0.60
2022-12-31T01:17:21.498Z,0.60
2022-12-31T01:19:50.410Z,0.60
2022-12-31T01:22:17.995Z,0.70
2022-12-31T01:24:45.573Z,0.70
2022-12-31T01:27:13.142Z,0.70
2022-12-31T01:29:40.721Z,0.60
2022-12-31T01:32:08.246Z,0.60
2022-12-31T01:34:35.899Z,0.60
2022-12-31T01:37:03.497Z,0.60
2022-12-31T01:39:31.117Z,0.60
2022-12-31T01:41:58.847Z,0.60
2022-12-31T01:44:26.394Z,0.70
2022-12-31T01:47:01.982Z,0.60
2022-12-31T01:49:49.782Z,0.60
2022-12-31T01:52:48.191Z,0.60
2022-12-31T01:55:20.198Z,0.60
2022-12-31T01:57:51.401Z,0.60
2022-12-31T02:00:19.333Z,0.60
2022-12-31T02:02:47.321Z,0.60
2022-12-31T02:05:32.494Z,0.60
2022-12-31T02:08:00.254Z,0.60
2022-12-31T02:10:27.823Z,0.60
2022-12-31T02:12:55.575Z,0.60
2022-12-31T02:15:33.665Z,0.50
2022-12-31T02:18:11.851Z,0.50
2022-12-31T02:21:11.279Z,0.50
2022-12-31T02:24:17.245Z,0.50
2022-12-31T02:26:58.780Z,0.50
2022-12-31T02:29:35.281Z,0.50
2022-12-31T02:32:24.824Z,0.50
2022-12-31T02:34:57.563Z,0.40
2022-12-31T02:37:30.367Z,0.40
2022-12-31T02:39:59.014Z,0.30
2022-12-31T02:42:26.691Z,0.40
2022-12-31T02:44:54.302Z,0.40
2022-12-31T02:47:44.659Z,0.40
2022-12-31T02:50:55.686Z,0.40
2022-12-31T02:53:33.223Z,0.50
2022-12-31T02:56:17.326Z,0.60
2022-12-31T02:59:24.765Z,0.60
2022-12-31T03:02:13.974Z,0.70
2022-12-31T03:05:02.722Z,0.70
2022-12-31T03:07:32.737Z,0.60
2022-12-31T03:10:01.503Z,0.60
2022-12-31T03:12:50.029Z,0.60
2022-12-31T03:15:24.012Z,0.60
2022-12-31T03:18:03.727Z,0.70
2022-12-31T03:21:08.685Z,0.70
2022-12-31T03:23:43.907Z,0.70
2022-12-31T03:26:12.534Z,0.70
2022-12-31T03:28:42.482Z,0.70
2022-12-31T03:31:10.126Z,0.70
2022-12-31T03:33:40.120Z,0.70
2022-12-31T03:36:13.406Z,0.70
2022-12-31T03:38:41.350Z,0.80
2022-12-31T03:41:11.115Z,0.80
2022-12-31T03:43:38.834Z,0.80
2022-12-31T03:46:06.635Z,0.80
2022-12-31T03:48:34.466Z,0.90
2022-12-31T03:51:02.092Z,0.80
2022-12-31T03:53:29.682Z,0.90
2022-12-31T03:55:57.266Z,0.90
2022-12-31T03:58:24.833Z,0.90
2022-12-31T04:00:52.515Z,0.90
2022-12-31T04:03:20.287Z,0.90
2022-12-31T04:05:53.948Z,0.90
2022-12-31T04:08:21.699Z,0.90
2022-12-31T04:10:49.430Z,0.80
2022-12-31T04:13:17.025Z,0.90
2022-12-31T04:15:44.635Z,0.90
2022-12-31T04:18:12.703Z,1.00
2022-12-31T04:20:40.643Z,0.90
2022-12-31T04:23:08.181Z,1.00
2022-12-31T04:25:35.785Z,1.00
2022-12-31T04:28:03.436Z,1.00
2022-12-31T04:30:31.334Z,1.00
2022-12-31T04:32:58.924Z,1.00
2022-12-31T04:35:26.517Z,1.00
2022-12-31T04:37:54.093Z,0.90
2022-12-31T04:40:23.491Z,1.00
2022-12-31T04:42:51.062Z,1.00
2022-12-31T04:45:18.673Z,1.00
2022-12-31T04:47:46.243Z,1.00
2022-12-31T04:50:13.810Z,1.00
2022-12-31T04:52:43.013Z,0.90
2022-12-31T04:55:11.484Z,1.00
2022-12-31T04:57:39.452Z,1.00
2022-12-31T05:00:08.103Z,1.00
2022-12-31T05:02:36.048Z,0.90
2022-12-31T05:05:03.880Z,0.90
2022-12-31T05:07:31.944Z,0.90
2022-12-31T05:09:59.505Z,1.00
2022-12-31T05:12:27.241Z,1.00
2022-12-31T05:14:54.987Z,1.00
2022-12-31T05:17:22.779Z,1.00
2022-12-31T05:19:50.348Z,1.00
2022-12-31T05:22:29.916Z,1.00
2022-12-31T05:24:59.540Z,1.00
2022-12-31T05:27:28.717Z,1.00
2022-12-31T05:29:56.319Z,1.00
2022-12-31T05:32:23.888Z,1.10
2022-12-31T05:34:51.960Z,0.90
2022-12-31T05:37:19.598Z,1.00
2022-12-31T05:39:47.229Z,1.00
2022-12-31T05:42:16.473Z,1.00
2022-12-31T05:44:44.264Z,1.10
2022-12-31T05:47:13.099Z,1.10
2022-12-31T05:49:40.651Z,1.10
2022-12-31T05:52:13.816Z,1.10
2022-12-31T05:54:42.406Z,1.10
2022-12-31T05:57:10.034Z,1.10
2022-12-31T05:59:37.657Z,1.20
2022-12-31T06:02:05.561Z,1.20
2022-12-31T06:04:34.694Z,1.20
2022-12-31T06:07:02.299Z,1.20
2022-12-31T06:09:29.965Z,1.20
2022-12-31T06:11:57.540Z,1.20
2022-12-31T06:14:25.255Z,1.10
2022-12-31T06:16:52.963Z,1.10
2022-12-31T06:19:21.048Z,1.10
2022-12-31T06:21:48.837Z,1.00
2022-12-31T06:24:16.442Z,1.00
2022-12-31T06:26:43.978Z,0.90
2022-12-31T06:29:11.809Z,1.00
2022-12-31T06:31:39.457Z,1.00
2022-12-31T06:34:07.924Z,1.10
2022-12-31T06:36:35.535Z,0.90
2022-12-31T06:39:03.177Z,0.80
2022-12-31T06:41:31.781Z,0.70
2022-12-31T06:43:59.350Z,0.70
2022-12-31T06:46:27.082Z,0.60
2022-12-31T06:48:54.698Z,0.50
2022-12-31T06:51:22.656Z,0.50
2022-12-31T06:53:51.821Z,0.40
2022-12-31T06:56:33.159Z,0.40
2022-12-31T06:59:02.915Z,0.40
2022-12-31T07:01:52.365Z,0.50
2022-12-31T07:04:57.063Z,0.50
2022-12-31T07:07:37.162Z,0.50
2022-12-31T07:10:29.212Z,0.40
2022-12-31T07:13:03.306Z,0.30
2022-12-31T07:15:46.281Z,0.20
2022-12-31T07:18:41.332Z,0.20
2022-12-31T07:21:15.145Z,0.10
2022-12-31T07:23:43.459Z,0.20
2022-12-31T07:26:42.919Z,0.20
2022-12-31T07:29:32.653Z,0.20
2022-12-31T07:32:25.199Z,0.20
2022-12-31T07:35:11.727Z,0.40
2022-12-31T07:37:42.363Z,0.40
2022-12-31T07:40:28.343Z,0.40
2022-12-31T07:43:43.262Z,0.40
2022-12-31T07:46:19.727Z,0.40
2022-12-31T07:48:47.684Z,0.50
2022-12-31T07:51:15.736Z,0.40
2022-12-31T07:53:43.488Z,0.50
2022-12-31T07:56:11.266Z,0.60
2022-12-31T07:58:52.645Z,0.80
2022-12-31T08:01:41.691Z,0.80
2022-12-31T08:04:15.657Z,0.90
2022-12-31T08:07:17.160Z,1.00
2022-12-31T08:09:47.761Z,1.10
2022-12-31T08:12:15.735Z,1.20
2022-12-31T08:14:46.473Z,1.30
2022-12-31T08:17:17.080Z,1.40
2022-12-31T08:19:45.907Z,1.60
2022-12-31T08:22:32.671Z,1.60
2022-12-31T08:25:45.941Z,1.60
2022-12-31T08:28:32.340Z,1.60
2022-12-31T08:31:14.951Z,1.70
2022-12-31T08:34:16.426Z,1.80
2022-12-31T08:37:05.385Z,1.80
2022-12-31T08:39:38.990Z,1.90
2022-12-31T08:42:32.635Z,2.00
2022-12-31T08:45:13.621Z,1.90
2022-12-31T08:47:59.542Z,2.00
2022-12-31T08:50:28.065Z,1.90
2022-12-31T08:52:56.366Z,2.00
2022-12-31T08:55:24.242Z,2.10
2022-12-31T08:58:00.720Z,2.20
2022-12-31T09:00:30.075Z,2.40
2022-12-31T09:03:09.755Z,2.50
2022-12-31T09:05:55.068Z,2.70
2022-12-31T09:08:46.843Z,2.80
2022-12-31T09:11:29.437Z,3.00
2022-12-31T09:14:35.599Z,3.10
2022-12-31T09:17:16.082Z,3.30
2022-12-31T09:19:44.444Z,3.30
2022-12-31T09:22:12.236Z,3.40
2022-12-31T09:24:40.264Z,3.50
2022-12-31T09:27:15.378Z,3.60
2022-12-31T09:30:07.403Z,3.70
2022-12-31T09:32:44.658Z,3.70
2022-12-31T09:35:33.488Z,3.60
2022-12-31T09:38:23.376Z,3.70
2022-12-31T09:41:13.550Z,3.80
2022-12-31T09:44:12.437Z,3.90
2022-12-31T09:46:58.941Z,4.00
2022-12-31T09:50:00.272Z,4.10
2022-12-31T09:52:39.967Z,4.10
2022-12-31T09:55:32.641Z,4.20
2022-12-31T09:58:25.097Z,4.20
2022-12-31T10:01:16.883Z,4.20
2022-12-31T10:04:23.324Z,4.30
2022-12-31T10:07:18.769Z,4.30
2022-12-31T10:10:23.849Z,4.40
2022-12-31T10:12:57.577Z,4.40
2022-12-31T10:15:47.322Z,4.30
2022-12-31T10:18:38.047Z,4.30
2022-12-31T10:21:17.645Z,4.20
2022-12-31T10:24:23.434Z,4.30
2022-12-31T10:27:17.876Z,4.20
2022-12-31T10:29:57.381Z,4.20
2022-12-31T10:32:55.155Z,4.20
2022-12-31T10:35:31.767Z,4.30
2022-12-31T10:38:18.073Z,4.30
2022-12-31T10:41:04.472Z,4.40
2022-12-31T10:44:03.720Z,4.40
2022-12-31T10:47:01.564Z,4.40
2022-12-31T10:49:55.937Z,4.40
2022-12-31T10:52:59.045Z,4.40
2022-12-31T10:55:50.680Z,4.30
2022-12-31T10:58:36.642Z,4.30
2022-12-31T11:01:25.351Z,4.30
2022-12-31T11:04:47.482Z,4.50
2022-12-31T11:07:54.771Z,4.80
2022-12-31T11:10:25.356Z,5.10
2022-12-31T11:13:11.591Z,5.10
2022-12-31T11:15:50.389Z,4.90
2022-12-31T11:18:31.221Z,4.80
2022-12-31T11:21:07.890Z,4.80
2022-12-31T11:24:00.378Z,5.00
2022-12-31T11:26:42.712Z,5.10
2022-12-31T11:29:34.816Z,4.80
2022-12-31T11:32:02.404Z,4.90
2022-12-31T11:34:39.287Z,4.90
2022-12-31T11:37:45.551Z,4.90
2022-12-31T11:40:28.353Z,4.80
2022-12-31T11:42:58.865Z,4.70
2022-12-31T11:45:53.992Z,4.70
2022-12-31T11:48:30.575Z,4.60
2022-12-31T11:51:26.155Z,4.60
2022-12-31T11:54:12.635Z,4.70
2022-12-31T11:56:52.335Z,4.80
2022-12-31T11:59:20.931Z,5.00
2022-12-31T12:02:13.425Z,5.70
2022-12-31T12:04:41.423Z,6.70
2022-12-31T12:07:14.696Z,7.60
2022-12-31T12:09:44.907Z,8.30
2022-12-31T12:12:13.213Z,8.40
2022-12-31T12:14:43.603Z,8.20
2022-12-31T12:17:17.691Z,8.50
2022-12-31T12:19:53.463Z,8.90
2022-12-31T12:22:22.236Z,9.10
2022-12-31T12:24:59.006Z,9.20
2022-12-31T12:27:33.287Z,8.90
2022-12-31T12:30:30.481Z,9.20
2022-12-31T12:33:04.821Z,9.40
2022-12-31T12:35:35.712Z,8.90
2022-12-31T12:38:12.528Z,8.90
2022-12-31T12:40:40.709Z,8.50
2022-12-31T12:43:27.582Z,8.40
2022-12-31T12:46:00.169Z,8.80
2022-12-31T12:48:48.052Z,9.50
2022-12-31T12:51:30.669Z,10.60
2022-12-31T12:54:23.382Z,11.40
2022-12-31T12:57:18.925Z,11.70
2022-12-31T13:00:09.701Z,12.00
2022-12-31T13:02:58.884Z,11.00
2022-12-31T13:05:33.779Z,11.00
2022-12-31T13:08:25.933Z,11.00
2022-12-31T13:11:15.788Z,9.60
2022-12-31T13:13:51.187Z,8.10
2022-12-31T13:16:39.092Z,7.40
2022-12-31T13:19:09.651Z,6.70
2022-12-31T13:22:19.004Z,6.20
2022-12-31T13:24:59.746Z,5.80
2022-12-31T13:27:33.085Z,5.40
2022-12-31T13:30:04.424Z,5.10
2022-12-31T13:32:43.491Z,5.00
2022-12-31T13:35:26.810Z,4.90
2022-12-31T13:38:25.753Z,4.90
2022-12-31T13:41:04.494Z,4.80
2022-12-31T13:43:58.833Z,4.60
2022-12-31T13:46:47.699Z,4.60
2022-12-31T13:49:24.484Z,4.40
2022-12-31T13:52:13.448Z,4.40
2022-12-31T13:54:51.020Z,4.30
2022-12-31T13:57:49.766Z,4.30
2022-12-31T14:00:24.001Z,4.30
2022-12-31T14:03:14.069Z,4.20
2022-12-31T14:05:58.622Z,4.20
2022-12-31T14:08:26.500Z,4.20
2022-12-31T14:11:05.844Z,4.10
2022-12-31T14:14:00.771Z,4.00
2022-12-31T14:16:50.522Z,3.90
2022-12-31T14:19:41.564Z,3.80
2022-12-31T14:22:32.307Z,3.70
2022-12-31T14:25:02.726Z,3.50
2022-12-31T14:27:36.189Z,3.30
2022-12-31T14:30:07.265Z,3.20
2022-12-31T14:33:02.088Z,3.10
2022-12-31T14:35:49.259Z,3.00
2022-12-31T14:39:01.137Z,2.90
2022-12-31T14:41:47.880Z,2.80
2022-12-31T14:44:24.174Z,2.70
2022-12-31T14:47:22.635Z,2.60
2022-12-31T14:50:11.825Z,2.50
2022-12-31T14:52:52.730Z,2.50
2022-12-31T14:55:35.360Z,2.40
2022-12-31T14:58:28.847Z,2.30
2022-12-31T15:01:03.440Z,2.20
2022-12-31T15:03:31.068Z,2.20
2022-12-31T15:06:08.677Z,2.20
2022-12-31T15:08:55.143Z,2.10
2022-12-31T15:11:41.483Z,2.00
2022-12-31T15:14:46.284Z,1.90
2022-12-31T15:17:39.081Z,1.90
2022-12-31T15:20:17.317Z,1.80
2022-12-31T15:22:53.259Z,1.70
2022-12-31T15:25:41.223Z,1.60
2022-12-31T15:28:31.136Z,1.50
2022-12-31T15:31:28.763Z,1.40
2022-12-31T15:34:01.080Z,1.30
2022-12-31T15:36:35.721Z,1.30
2022-12-31T15:39:11.520Z,1.30
2022-12-31T15:42:18.710Z,1.30
2022-12-31T15:44:59.247Z,1.30
2022-12-31T15:47:45.490Z,1.20
2022-12-31T15:50:20.229Z,1.10
2022-12-31T15:52:53.011Z,1.00
2022-12-31T15:55:32.816Z,1.10
2022-12-31T15:58:11.229Z,1.00
2022-12-31T16:00:48.061Z,0.90
2022-12-31T16:03:23.457Z,0.80
2022-12-31T16:05:53.693Z,0.80
2022-12-31T16:08:31.383Z,0.80
2022-12-31T16:10:59.625Z,0.80
2022-12-31T16:13:29.343Z,0.80
2022-12-31T16:16:08.921Z,0.70
2022-12-31T16:18:41.698Z,0.80
2022-12-31T16:21:36.688Z,0.80
2022-12-31T16:24:23.176Z,0.80
2022-12-31T16:26:53.766Z,0.80
2022-12-31T16:29:23.904Z,0.70
2022-12-31T16:31:55.731Z,0.70
2022-12-31T16:34:25.421Z,0.70
2022-12-31T16:37:13.642Z,0.70
2022-12-31T16:40:01.404Z,0.60
2022-12-31T16:42:29.360Z,0.50
2022-12-31T16:44:57.888Z,0.50
2022-12-31T16:47:36.026Z,0.50
2022-12-31T16:50:07.967Z,0.50
2022-12-31T16:52:43.772Z,0.50
2022-12-31T16:55:25.019Z,0.50
2022-12-31T16:57:59.063Z,0.40
2022-12-31T17:00:27.096Z,0.40
2022-12-31T17:03:21.049Z,0.40
2022-12-31T17:05:54.938Z,0.40
2022-12-31T17:08:28.727Z,0.40
2022-12-31T17:10:56.586Z,0.50
2022-12-31T17:13:32.113Z,0.40
2022-12-31T17:16:01.263Z,0.40
2022-12-31T17:18:37.782Z,0.40
2022-12-31T17:21:09.161Z,0.40
2022-12-31T17:23:39.850Z,0.40
2022-12-31T17:26:11.348Z,0.50
2022-12-31T17:28:51.396Z,0.50
2022-12-31T17:32:01.983Z,0.60
2022-12-31T17:34:47.468Z,0.50
2022-12-31T17:37:25.360Z,0.60
2022-12-31T17:40:32.332Z,0.50
2022-12-31T17:42:49.703Z,0.50
2022-12-31T17:45:21.562Z,0.50
2022-12-31T17:47:52.507Z,0.50
2022-12-31T17:50:23.488Z,0.50
2022-12-31T17:52:55.871Z,0.50
2022-12-31T17:55:23.652Z,0.50
2022-12-31T17:57:55.578Z,0.70
2022-12-31T18:00:26.273Z,0.60
2022-12-31T18:02:54.046Z,0.60
2022-12-31T18:05:24.221Z,0.60
2022-12-31T18:07:52.102Z,0.60
2022-12-31T18:10:22.675Z,0.50
2022-12-31T18:12:51.059Z,0.50
2022-12-31T18:15:24.252Z,0.50
2022-12-31T18:17:52.048Z,0.50
2022-12-31T18:20:19.950Z,0.50
2022-12-31T18:22:47.575Z,0.40
2022-12-31T18:25:19.363Z,0.40
2022-12-31T18:27:47.556Z,0.40
2022-12-31T18:30:17.896Z,0.50
2022-12-31T18:32:46.661Z,0.50
2022-12-31T18:35:40.694Z,0.50
2022-12-31T18:38:16.863Z,0.50
2022-12-31T18:40:50.264Z,0.50
2022-12-31T18:43:19.207Z,0.50
2022-12-31T18:45:47.778Z,0.40
2022-12-31T18:48:16.278Z,0.50
2022-12-31T18:50:44.492Z,0.50
2022-12-31T18:53:18.216Z,0.40
2022-12-31T18:55:52.670Z,0.50
2022-12-31T18:58:20.783Z,0.40
2022-12-31T19:00:50.403Z,0.30
2022-12-31T19:03:21.418Z,0.20
2022-12-31T19:05:51.130Z,0.30
2022-12-31T19:08:20.173Z,0.30
2022-12-31T19:10:49.442Z,0.30
2022-12-31T19:13:19.393Z,0.30
2022-12-31T19:15:49.760Z,0.30
2022-12-31T19:18:17.917Z,0.40
2022-12-31T19:20:46.063Z,0.40
2022-12-31T19:23:19.523Z,0.40
2022-12-31T19:25:48.861Z,0.30
2022-12-31T19:28:25.069Z,0.40
2022-12-31T19:30:53.420Z,0.40
2022-12-31T19:33:21.747Z,0.40
2022-12-31T19:35:49.631Z,0.40
2022-12-31T19:38:23.181Z,0.50
2022-12-31T19:40:51.905Z,0.50
2022-12-31T19:43:22.993Z,0.40
2022-12-31T19:45:51.392Z,0.40
2022-12-31T19:48:32.031Z,0.40
2022-12-31T19:51:00.383Z,0.40
2022-12-31T19:53:28.264Z,0.40
2022-12-31T19:55:55.811Z,0.30
2022-12-31T19:58:26.127Z,0.30
2022-12-31T20:01:02.768Z,0.30
2022-12-31T20:03:33.679Z,0.30
2022-12-31T20:06:06.220Z,0.30
2022-12-31T20:08:35.447Z,0.30
2022-12-31T20:11:11.615Z,0.30
2022-12-31T20:13:40.331Z,0.30
2022-12-31T20:16:11.625Z,0.30
2022-12-31T20:18:41.158Z,0.30
2022-12-31T20:21:11.924Z,0.20
2022-12-31T20:23:40.569Z,0.20
2022-12-31T20:26:08.281Z,0.20
2022-12-31T20:28:37.067Z,0.10
2022-12-31T20:31:06.990Z,0.10
2022-12-31T20:33:34.937Z,0.10
2022-12-31T20:36:04.526Z,0.30
2022-12-31T20:38:32.180Z,0.30
2022-12-31T20:41:17.808Z,0.20
2022-12-31T20:43:46.196Z,0.20
2022-12-31T20:46:22.348Z,0.20
2022-12-31T20:48:51.739Z,0.10
2022-12-31T20:51:21.255Z,0.10
2022-12-31T20:54:01.106Z,0.00
2022-12-31T20:56:31.124Z,0.10
2022-12-31T20:59:00.455Z,0.10
2022-12-31T21:01:47.820Z,-0.10
2022-12-31T21:04:16.584Z,-0.10
2022-12-31T21:06:44.500Z,-0.10
2022-12-31T21:09:12.169Z,0.00
2022-12-31T21:11:58.456Z,0.00
2022-12-31T21:14:26.073Z,-0.10
2022-12-31T21:16:53.682Z,-0.10
2022-12-31T21:19:27.475Z,-0.20
2022-12-31T21:21:55.040Z,-0.30
2022-12-31T21:24:24.181Z,-0.30
2022-12-31T21:26:55.692Z,-0.20
2022-12-31T21:29:23.551Z,-0.30
2022-12-31T21:31:51.188Z,-0.20
2022-12-31T21:34:18.875Z,-0.10
2022-12-31T21:36:46.656Z,-0.10
2022-12-31T21:39:14.242Z,-0.10
2022-12-31T21:41:54.046Z,-0.10
2022-12-31T21:44:25.949Z,-0.20
2022-12-31T21:47:33.908Z,-0.10
2022-12-31T21:49:45.395Z,0.00
2022-12-31T21:52:26.055Z,0.10
2022-12-31T21:55:13.014Z,0.00
2022-12-31T21:57:59.503Z,0.00
2022-12-31T22:00:47.585Z,0.00
2022-12-31T22:03:24.344Z,-0.10
2022-12-31T22:05:54.686Z,0.00
2022-12-31T22:08:23.406Z,0.10
2022-12-31T22:10:53.594Z,0.10
2022-12-31T22:13:22.128Z,0.20
2022-12-31T22:15:58.752Z,0.10
2022-12-31T22:18:29.780Z,0.10
2022-12-31T22:21:04.623Z,0.00
2022-12-31T22:23:33.879Z,0.00
2022-12-31T22:26:02.281Z,0.00
2022-12-31T22:28:39.043Z,0.00
2022-12-31T22:31:18.869Z,-0.10
2022-12-31T22:33:46.897Z,-0.10
2022-12-31T22:36:20.184Z,-0.10
2022-12-31T22:38:49.130Z,-0.10
2022-12-31T22:41:22.163Z,-0.20
2022-12-31T22:43:58.464Z,-0.10
2022-12-31T22:46:30.287Z,-0.10
2022-12-31T22:49:00.381Z,-0.10
2022-12-31T22:51:57.298Z,-0.10
2022-12-31T22:54:17.393Z,-0.10
2022-12-31T22:56:45.419Z,-0.10
2022-12-31T22:59:16.160Z,-0.20
2022-12-31T23:01:44.162Z,-0.20
2022-12-31T23:04:12.292Z,-0.30
2022-12-31T23:06:45.863Z,-0.40
2022-12-31T23:09:33.756Z,-0.40
2022-12-31T23:12:02.366Z,-0.30
2022-12-31T23:14:48.383Z,-0.30
2022-12-31T23:17:44.093Z,-0.60
2022-12-31T23:20:37.055Z,-0.40
2022-12-31T23:23:09.899Z,-0.40
2022-12-31T23:25:39.807Z,-0.40
2022-12-31T23:28:09.961Z,-0.50
2022-12-31T23:30:39.545Z,-0.60
2022-12-31T23:33:08.331Z,-0.50
2022-12-31T23:35:36.139Z,-0.50
2022-12-31T23:38:03.909Z,-0.60
2022-12-31T23:40:34.457Z,-0.40
2022-12-31T23:43:07.357Z,-0.30
2022-12-31T23:45:35.352Z,-0.30
2022-12-31T23:48:03.222Z,-0.30
2022-12-31T23:50:31.041Z,-0.20
2022-12-31T23:52:58.609Z,-0.30
2022-12-31T23:55:26.289Z,-0.30
2022-12-31T23:57:53.894Z,-0.40
